Latest Weather Observations for Frankston

IDV60901

Issued at 12:01 am EST Thursday 25 April 2019 (issued every 10 minutes, with the page automatically refreshed every 10 minutes)

About weather observations | Map of Melbourne area stations | Latest observations for Melbourne area | Other Formats
Station Details ID: 086371 Name: FRANKSTON AWS Lat: -38.15 Lon: 145.12 Height: 6.0 m
Data from the previous 72 hours. | See also: Recent months at Frankston
Date/Time
EST
Temp
°C
App
Temp
°C
Dew
Point
°C
Rel
Hum
%
Delta-T
°C
Wind Press
QNH
hPa
Press
MSL
hPa
Rain since
9am
mm
Dir  Spd
km/h
Gust
km/h
Spd
kts
Gust
kts
25/12:00am - - - - - WNW 30 33 16 18 - - -
 
Date/Time
EST
Temp
°C
App
Temp
°C
Dew
Point
°C
Rel
Hum
%
Delta-T
°C
Wind Press
QNH
hPa
Press
MSL
hPa
Rain since
9am
mm
Dir  Spd
km/h
Gust
km/h
Spd
kts
Gust
kts
24/11:30pm - - - - - WNW 28 32 15 17 - - -
24/11:00pm - - - - - WNW 26 30 14 16 - - -
24/10:30pm - - - - - WNW 28 32 15 17 - - -
24/10:16pm - - - - - WNW 28 33 15 18 - - -
24/10:00pm - - - - - ESE 6 7 3 4 - - -
24/09:30pm - - - - - SE 6 7 3 4 - - -
24/09:00pm - - - - - E 7 9 4 5 - - -
24/08:30pm - - - - - ESE 6 9 3 5 - - -
24/08:00pm - - - - - SSE 7 9 4 5 - - -
24/07:30pm - - - - - SE 9 11 5 6 - - -
24/07:00pm - - - - - SSW 7 11 4 6 - - -
24/06:30pm - - - - - SSW 11 15 6 8 - - -
24/06:00pm - - - - - SSW 7 11 4 6 - - -
24/05:30pm - - - - - SE 9 13 5 7 - - -
24/05:00pm - - - - - S 11 19 6 10 - - -
24/04:30pm - - - - - S 13 20 7 11 - - -
24/04:00pm - - - - - WSW 17 26 9 14 - - -
24/03:30pm - - - - - SW 13 19 7 10 - - -
24/03:00pm - - - - - WSW 17 19 9 10 - - -
24/02:30pm - - - - - WSW 13 15 7 8 - - -
24/02:00pm - - - - - WNW 6 9 3 5 - - -
24/01:30pm - - - - - WNW 7 9 4 5 - - -
24/01:00pm - - - - - WNW 9 11 5 6 - - -
24/12:30pm - - - - - W 11 13 6 7 - - -
24/12:00pm - - - - - WNW 13 15 7 8 - - -
24/11:30am - - - - - W 13 17 7 9 - - -
24/11:00am - - - - - N 13 17 7 9 - - -
24/10:30am - - - - - NNE 13 15 7 8 - - -
24/10:00am - - - - - NNE 13 17 7 9 - - -
24/09:30am - - - - - NNE 9 11 5 6 - - -
24/09:00am - - - - - CALM 0 0 0 0 - - -
24/08:30am - - - - - N 7 7 4 4 - - -
24/08:00am - - - - - CALM 0 0 0 0 - - -
24/07:30am - - - - - CALM 0 0 0 0 - - -
24/07:00am - - - - - CALM 0 0 0 0 - - -
24/06:30am - - - - - CALM 0 0 0 0 - - -
24/06:00am - - - - - CALM 0 0 0 0 - - -
24/05:30am - - - - - ESE 2 7 1 4 - - -
24/05:00am - - - - - SE 6 9 3 5 - - -
24/04:30am - - - - - SE 9 13 5 7 - - -
24/04:00am - - - - - SSE 7 11 4 6 - - -
24/03:30am - - - - - SSE 9 15 5 8 - - -
24/03:00am - - - - - SSE 9 15 5 8 - - -
24/02:30am - - - - - S 11 13 6 7 - - -
24/02:00am - - - - - S 9 11 5 6 - - -
24/01:30am - - - - - S 7 11 4 6 - - -
24/01:00am - - - - - SSE 9 13 5 7 - - -
24/12:30am - - - - - SSE 9 13 5 7 - - -
24/12:00am - - - - - SE 11 15 6 8 - - -
 
Date/Time
EST
Temp
°C
App
Temp
°C
Dew
Point
°C
Rel
Hum
%
Delta-T
°C
Wind Press
QNH
hPa
Press
MSL
hPa
Rain since
9am
mm
Dir  Spd
km/h
Gust
km/h
Spd
kts
Gust
kts
23/11:30pm - - - - - SE 9 15 5 8 - - -
23/11:00pm - - - - - SE 11 19 6 10 - - -
23/10:30pm - - - - - SSE 9 17 5 9 - - -
23/10:00pm - - - - - SSE 13 19 7 10 - - -
23/09:30pm - - - - - SSE 11 20 6 11 - - -
23/09:00pm - - - - - S 13 22 7 12 - - -
23/08:30pm - - - - - SSE 13 24 7 13 - - -
23/08:00pm - - - - - SSE 13 26 7 14 - - -
23/07:30pm - - - - - SSE 13 20 7 11 - - -
23/07:00pm - - - - - SSE 13 24 7 13 - - -
23/06:30pm - - - - - SSE 9 17 5 9 - - -
23/06:00pm - - - - - S 11 17 6 9 - - -
23/05:30pm - - - - - SSE 13 19 7 10 - - -
23/05:00pm - - - - - SSE 11 19 6 10 - - -
23/04:30pm - - - - - SSE 9 15 5 8 - - -
23/04:00pm - - - - - SSE 9 15 5 8 - - -
23/03:30pm - - - - - S 13 17 7 9 - - -
23/03:00pm - - - - - SSE 9 17 5 9 - - -
23/02:30pm - - - - - SSE 9 13 5 7 - - -
23/02:00pm - - - - - SSE 9 15 5 8 - - -
23/01:30pm - - - - - S 9 13 5 7 - - -
23/01:00pm - - - - - SSE 9 20 5 11 - - -
23/12:30pm - - - - - SE 9 17 5 9 - - -
23/12:00pm - - - - - SE 7 13 4 7 - - -
23/11:30am - - - - - SSE 9 17 5 9 - - -
23/11:00am - - - - - SE 9 13 5 7 - - -
23/10:30am - - - - - ESE 9 15 5 8 - - -
23/10:00am - - - - - SSE 11 19 6 10 - - -
23/09:30am - - - - - SSE 11 17 6 9 - - -
23/09:00am - - - - - SE 9 13 5 7 - - -
23/08:30am - - - - - SSE 6 9 3 5 - - -
23/08:00am - - - - - CALM 0 6 0 3 - - -
23/07:30am - - - - - S 4 9 2 5 - - -
23/07:00am - - - - - SSW 7 9 4 5 - - -
23/06:30am - - - - - S 7 9 4 5 - - -
23/06:00am - - - - - S 7 11 4 6 - - -
23/05:30am - - - - - S 7 9 4 5 - - -
23/05:00am - - - - - S 7 9 4 5 - - -
23/04:30am - - - - - S 7 11 4 6 - - -
23/04:00am - - - - - S 9 11 5 6 - - -
23/03:30am - - - - - S 7 9 4 5 - - -
23/03:00am - - - - - S 7 11 4 6 - - -
23/02:30am - - - - - S 9 11 5 6 - - -
23/02:00am - - - - - SSE 7 11 4 6 - - -
23/01:30am - - - - - SSE 7 9 4 5 - - -
23/01:00am - - - - - SSE 9 11 5 6 - - -
23/12:30am - - - - - SSE 9 13 5 7 - - -
23/12:00am - - - - - SSE 9 13 5 7 - - -
 
Date/Time
EST
Temp
°C
App
Temp
°C
Dew
Point
°C
Rel
Hum
%
Delta-T
°C
Wind Press
QNH
hPa
Press
MSL
hPa
Rain since
9am
mm
Dir  Spd
km/h
Gust
km/h
Spd
kts
Gust
kts
22/11:30pm - - - - - S 9 13 5 7 - - -
22/11:00pm - - - - - S 9 13 5 7 - - -
22/10:30pm - - - - - SSE 7 13 4 7 - - -
22/10:00pm - - - - - SSE 9 15 5 8 - - -
22/09:30pm - - - - - SSE 9 13 5 7 - - -
22/09:00pm - - - - - SSE 7 13 4 7 - - -
22/08:30pm - - - - - SSE 7 9 4 5 - - -
22/08:00pm - - - - - SSE 7 11 4 6 - - -
22/07:30pm - - - - - S 9 11 5 6 - - -
22/07:00pm - - - - - S 9 13 5 7 - - -
22/06:30pm - - - - - S 11 19 6 10 - - -
22/06:00pm - - - - - SSE 11 19 6 10 - - -
22/05:30pm - - - - - SE 11 17 6 9 - - -
22/05:00pm - - - - - SE 11 15 6 8 - - -
22/04:30pm - - - - - SE 11 17 6 9 - - -
22/04:00pm - - - - - ESE 11 19 6 10 - - -
22/03:30pm - - - - - SE 9 13 5 7 - - -
22/03:00pm - - - - - SE 11 17 6 9 - - -
22/02:30pm - - - - - SE 11 19 6 10 - - -
22/02:00pm - - - - - S 9 15 5 8 - - -
22/01:30pm - - - - - SSW 11 19 6 10 - - -
22/01:00pm - - - - - WSW 19 26 10 14 - - -
22/12:30pm - - - - - WSW 17 26 9 14 - - -
22/12:00pm - - - - - SW 7 17 4 9 - - -
22/11:30am - - - - - SW 9 15 5 8 - - -
22/11:00am - - - - - SSW 13 19 7 10 - - -
22/10:30am - - - - - S 9 15 5 8 - - -
22/10:00am - - - - - SSW 11 15 6 8 - - -
22/09:30am - - - - - SSW 11 17 6 9 - - -
22/09:00am - - - - - SSW 13 19 7 10 - - -
22/08:30am - - - - - SSW 9 11 5 6 - - -
22/08:00am - - - - - SSW 7 11 4 6 - - -
22/07:30am - - - - - SSW 9 11 5 6 - - -
22/07:00am - - - - - SW 9 11 5 6 - - -
22/06:30am - - - - - SSW 7 11 4 6 - - -
22/06:00am - - - - - SW 7 11 4 6 - - -
22/05:30am - - - - - SSW 7 11 4 6 - - -
22/05:00am - - - - - SSW 7 9 4 5 - - -
22/04:30am - - - - - SSW 7 9 4 5 - - -
22/04:00am - - - - - SSW 9 11 5 6 - - -
22/03:30am - - - - - SW 9 13 5 7 - - -
22/03:00am - - - - - SSW 6 9 3 5 - - -
22/02:30am - - - - - SW 9 15 5 8 - - -
22/02:00am - - - - - SSW 7 11 4 6 - - -
22/01:30am - - - - - SW 9 13 5 7 - - -
22/01:00am - - - - - SSW 9 13 5 7 - - -
22/12:30am - - - - - SW 13 19 7 10 - - -

Latest Capital City Observations: Canberra | Sydney | Melbourne | Brisbane | Adelaide | Perth | Hobart | Darwin

Other formats

Comma delimited format used in spreadsheet applications
http://www.bom.gov.au/fwo/IDV60901/IDV60901.94871.axf

JavaScript Object Notation format (JSON) in row-major order
http://www.bom.gov.au/fwo/IDV60901/IDV60901.94871.json

Data quality

Most of these data are generated automatically and are frequently updated. Quality checks on data are not normally performed. It is possible for incorrect values to appear. Refer to information at About Latest Weather Observations and please check the disclaimer before using these data.